sensor_id;sensor_type;location;lat;lon;timestamp;temperature;humidity
61398;DHT22;47267;48.130;-2.040;2022-09-02T00:00:34;24.50;58.90
61398;DHT22;47267;48.130;-2.040;2022-09-02T00:03:00;24.50;58.90
61398;DHT22;47267;48.130;-2.040;2022-09-02T00:05:25;24.50;58.90
61398;DHT22;47267;48.130;-2.040;2022-09-02T00:07:51;24.50;59.00
61398;DHT22;47267;48.130;-2.040;2022-09-02T00:10:17;24.50;59.00
61398;DHT22;47267;48.130;-2.040;2022-09-02T00:12:42;24.50;59.00
61398;DHT22;47267;48.130;-2.040;2022-09-02T00:15:09;24.40;58.90
61398;DHT22;47267;48.130;-2.040;2022-09-02T00:17:34;24.50;59.00
61398;DHT22;47267;48.130;-2.040;2022-09-02T00:20:00;24.40;58.90
61398;DHT22;47267;48.130;-2.040;2022-09-02T00:22:26;24.50;59.00
61398;DHT22;47267;48.130;-2.040;2022-09-02T00:24:52;24.40;58.90
61398;DHT22;47267;48.130;-2.040;2022-09-02T00:27:17;24.40;58.90
61398;DHT22;47267;48.130;-2.040;2022-09-02T00:29:43;24.40;58.90
61398;DHT22;47267;48.130;-2.040;2022-09-02T00:32:09;24.40;58.90
61398;DHT22;47267;48.130;-2.040;2022-09-02T00:34:34;24.40;58.90
61398;DHT22;47267;48.130;-2.040;2022-09-02T00:37:00;24.40;58.90
61398;DHT22;47267;48.130;-2.040;2022-09-02T00:39:26;24.40;59.00
61398;DHT22;47267;48.130;-2.040;2022-09-02T00:41:52;24.40;59.00
61398;DHT22;47267;48.130;-2.040;2022-09-02T00:44:19;24.40;59.00
61398;DHT22;47267;48.130;-2.040;2022-09-02T00:46:45;24.40;58.90
61398;DHT22;47267;48.130;-2.040;2022-09-02T00:49:18;24.40;59.10
61398;DHT22;47267;48.130;-2.040;2022-09-02T00:52:01;24.40;59.00
61398;DHT22;47267;48.130;-2.040;2022-09-02T00:54:30;24.40;59.00
61398;DHT22;47267;48.130;-2.040;2022-09-02T00:56:56;24.40;59.00
61398;DHT22;47267;48.130;-2.040;2022-09-02T00:59:37;24.40;59.00
61398;DHT22;47267;48.130;-2.040;2022-09-02T01:02:06;24.40;59.00
61398;DHT22;47267;48.130;-2.040;2022-09-02T01:04:32;24.40;59.00
61398;DHT22;47267;48.130;-2.040;2022-09-02T01:06:59;24.30;58.90
61398;DHT22;47267;48.130;-2.040;2022-09-02T01:09:25;24.30;59.00
61398;DHT22;47267;48.130;-2.040;2022-09-02T01:11:51;24.30;58.90
61398;DHT22;47267;48.130;-2.040;2022-09-02T01:14:18;24.30;58.90
61398;DHT22;47267;48.130;-2.040;2022-09-02T01:16:51;24.30;58.90
61398;DHT22;47267;48.130;-2.040;2022-09-02T01:19:23;24.30;58.90
61398;DHT22;47267;48.130;-2.040;2022-09-02T01:21:51;24.30;58.90
61398;DHT22;47267;48.130;-2.040;2022-09-02T01:24:18;24.30;58.90
61398;DHT22;47267;48.130;-2.040;2022-09-02T01:26:46;24.30;58.90
61398;DHT22;47267;48.130;-2.040;2022-09-02T01:29:12;24.30;58.90
61398;DHT22;47267;48.130;-2.040;2022-09-02T01:31:37;24.30;58.90
61398;DHT22;47267;48.130;-2.040;2022-09-02T01:34:03;24.20;58.90
61398;DHT22;47267;48.130;-2.040;2022-09-02T01:36:32;24.20;58.90
61398;DHT22;47267;48.130;-2.040;2022-09-02T01:38:58;24.20;58.90
61398;DHT22;47267;48.130;-2.040;2022-09-02T01:41:23;24.20;58.90
61398;DHT22;47267;48.130;-2.040;2022-09-02T01:43:49;24.20;58.90
61398;DHT22;47267;48.130;-2.040;2022-09-02T01:46:15;24.20;58.90
61398;DHT22;47267;48.130;-2.040;2022-09-02T01:48:41;24.20;58.90
61398;DHT22;47267;48.130;-2.040;2022-09-02T01:51:07;24.20;58.90
61398;DHT22;47267;48.130;-2.040;2022-09-02T01:53:33;24.20;58.90
61398;DHT22;47267;48.130;-2.040;2022-09-02T01:55:59;24.20;58.90
61398;DHT22;47267;48.130;-2.040;2022-09-02T01:58:25;24.20;58.90
61398;DHT22;47267;48.130;-2.040;2022-09-02T02:00:51;24.20;58.90
61398;DHT22;47267;48.130;-2.040;2022-09-02T02:03:17;24.20;58.90
61398;DHT22;47267;48.130;-2.040;2022-09-02T02:05:44;24.20;58.90
61398;DHT22;47267;48.130;-2.040;2022-09-02T02:08:10;24.20;58.90
61398;DHT22;47267;48.130;-2.040;2022-09-02T02:10:36;24.20;59.00
61398;DHT22;47267;48.130;-2.040;2022-09-02T02:13:04;24.10;58.90
61398;DHT22;47267;48.130;-2.040;2022-09-02T02:15:30;24.20;58.90
61398;DHT22;47267;48.130;-2.040;2022-09-02T02:17:55;24.10;58.90
61398;DHT22;47267;48.130;-2.040;2022-09-02T02:20:22;24.10;58.90
61398;DHT22;47267;48.130;-2.040;2022-09-02T02:22:48;24.10;58.90
61398;DHT22;47267;48.130;-2.040;2022-09-02T02:25:15;24.10;58.90
61398;DHT22;47267;48.130;-2.040;2022-09-02T02:27:42;24.10;59.00
61398;DHT22;47267;48.130;-2.040;2022-09-02T02:30:09;24.10;58.90
61398;DHT22;47267;48.130;-2.040;2022-09-02T02:32:34;24.10;58.90
61398;DHT22;47267;48.130;-2.040;2022-09-02T02:35:00;24.10;58.90
61398;DHT22;47267;48.130;-2.040;2022-09-02T02:37:26;24.10;58.90
61398;DHT22;47267;48.130;-2.040;2022-09-02T02:39:52;24.10;58.90
61398;DHT22;47267;48.130;-2.040;2022-09-02T02:42:18;24.10;58.90
61398;DHT22;47267;48.130;-2.040;2022-09-02T02:44:44;24.10;58.90
61398;DHT22;47267;48.130;-2.040;2022-09-02T02:47:10;24.10;59.00
61398;DHT22;47267;48.130;-2.040;2022-09-02T02:49:39;24.10;59.00
61398;DHT22;47267;48.130;-2.040;2022-09-02T02:52:06;24.10;58.90
61398;DHT22;47267;48.130;-2.040;2022-09-02T02:54:32;24.10;59.00
61398;DHT22;47267;48.130;-2.040;2022-09-02T02:56:58;24.10;59.00
61398;DHT22;47267;48.130;-2.040;2022-09-02T02:59:23;24.10;59.00
61398;DHT22;47267;48.130;-2.040;2022-09-02T03:01:50;24.00;58.90
61398;DHT22;47267;48.130;-2.040;2022-09-02T03:04:16;24.00;58.90
61398;DHT22;47267;48.130;-2.040;2022-09-02T03:06:42;24.00;58.90
61398;DHT22;47267;48.130;-2.040;2022-09-02T03:09:08;24.00;59.00
61398;DHT22;47267;48.130;-2.040;2022-09-02T03:11:34;24.00;58.90
61398;DHT22;47267;48.130;-2.040;2022-09-02T03:13:59;24.00;58.90
61398;DHT22;47267;48.130;-2.040;2022-09-02T03:16:25;24.00;58.90
61398;DHT22;47267;48.130;-2.040;2022-09-02T03:18:51;24.00;59.00
61398;DHT22;47267;48.130;-2.040;2022-09-02T03:21:17;24.00;58.90
61398;DHT22;47267;48.130;-2.040;2022-09-02T03:23:44;24.00;59.00
61398;DHT22;47267;48.130;-2.040;2022-09-02T03:26:12;24.00;58.90
61398;DHT22;47267;48.130;-2.040;2022-09-02T03:28:38;23.90;58.90
61398;DHT22;47267;48.130;-2.040;2022-09-02T03:31:05;23.90;58.90
61398;DHT22;47267;48.130;-2.040;2022-09-02T03:33:31;23.90;58.90
61398;DHT22;47267;48.130;-2.040;2022-09-02T03:35:57;23.90;58.90
61398;DHT22;47267;48.130;-2.040;2022-09-02T03:38:22;23.90;58.90
61398;DHT22;47267;48.130;-2.040;2022-09-02T03:40:48;23.90;58.90
61398;DHT22;47267;48.130;-2.040;2022-09-02T03:43:14;23.90;58.90
61398;DHT22;47267;48.130;-2.040;2022-09-02T03:45:40;23.90;59.00
61398;DHT22;47267;48.130;-2.040;2022-09-02T03:48:06;23.90;58.90
61398;DHT22;47267;48.130;-2.040;2022-09-02T03:50:35;23.90;58.90
61398;DHT22;47267;48.130;-2.040;2022-09-02T03:53:02;23.90;59.00
61398;DHT22;47267;48.130;-2.040;2022-09-02T03:55:28;23.90;59.00
61398;DHT22;47267;48.130;-2.040;2022-09-02T03:57:54;23.90;59.00
61398;DHT22;47267;48.130;-2.040;2022-09-02T04:00:22;23.90;59.00
61398;DHT22;47267;48.130;-2.040;2022-09-02T04:02:50;23.90;59.00
61398;DHT22;47267;48.130;-2.040;2022-09-02T04:05:16;23.90;59.00
61398;DHT22;47267;48.130;-2.040;2022-09-02T04:07:42;23.90;59.00
61398;DHT22;47267;48.130;-2.040;2022-09-02T04:10:09;23.90;59.00
61398;DHT22;47267;48.130;-2.040;2022-09-02T04:12:36;23.90;59.00
61398;DHT22;47267;48.130;-2.040;2022-09-02T04:15:03;23.80;58.90
61398;DHT22;47267;48.130;-2.040;2022-09-02T04:17:29;23.80;58.90
61398;DHT22;47267;48.130;-2.040;2022-09-02T04:19:55;23.80;59.00
61398;DHT22;47267;48.130;-2.040;2022-09-02T04:22:20;23.80;59.00
61398;DHT22;47267;48.130;-2.040;2022-09-02T04:24:46;23.80;59.00
61398;DHT22;47267;48.130;-2.040;2022-09-02T04:27:12;23.80;59.00
61398;DHT22;47267;48.130;-2.040;2022-09-02T04:29:38;23.80;59.00
61398;DHT22;47267;48.130;-2.040;2022-09-02T04:32:03;23.80;59.00
61398;DHT22;47267;48.130;-2.040;2022-09-02T04:34:29;23.80;59.00
61398;DHT22;47267;48.130;-2.040;2022-09-02T04:36:55;23.80;59.00
61398;DHT22;47267;48.130;-2.040;2022-09-02T04:39:21;23.80;59.00
61398;DHT22;47267;48.130;-2.040;2022-09-02T04:41:47;23.80;59.00
61398;DHT22;47267;48.130;-2.040;2022-09-02T04:44:13;23.70;58.90
61398;DHT22;47267;48.130;-2.040;2022-09-02T04:46:39;23.80;59.00
61398;DHT22;47267;48.130;-2.040;2022-09-02T04:49:04;23.70;58.90
61398;DHT22;47267;48.130;-2.040;2022-09-02T04:51:33;23.70;59.00
61398;DHT22;47267;48.130;-2.040;2022-09-02T04:54:00;23.70;59.00
61398;DHT22;47267;48.130;-2.040;2022-09-02T04:56:27;23.70;59.00
61398;DHT22;47267;48.130;-2.040;2022-09-02T04:58:55;23.70;59.00
61398;DHT22;47267;48.130;-2.040;2022-09-02T05:01:23;23.70;59.00
61398;DHT22;47267;48.130;-2.040;2022-09-02T05:03:50;23.70;59.00
61398;DHT22;47267;48.130;-2.040;2022-09-02T05:06:19;23.70;59.00
61398;DHT22;47267;48.130;-2.040;2022-09-02T05:08:45;23.70;59.00
61398;DHT22;47267;48.130;-2.040;2022-09-02T05:11:21;23.70;59.00
61398;DHT22;47267;48.130;-2.040;2022-09-02T05:13:49;23.70;59.00
61398;DHT22;47267;48.130;-2.040;2022-09-02T05:16:18;23.70;59.00
61398;DHT22;47267;48.130;-2.040;2022-09-02T05:18:45;23.70;59.10
61398;DHT22;47267;48.130;-2.040;2022-09-02T05:21:11;23.70;59.10
61398;DHT22;47267;48.130;-2.040;2022-09-02T05:23:37;23.70;59.00
61398;DHT22;47267;48.130;-2.040;2022-09-02T05:26:04;23.70;59.00
61398;DHT22;47267;48.130;-2.040;2022-09-02T05:28:30;23.70;59.10
61398;DHT22;47267;48.130;-2.040;2022-09-02T05:31:05;23.70;59.10
61398;DHT22;47267;48.130;-2.040;2022-09-02T05:33:32;23.70;59.10
61398;DHT22;47267;48.130;-2.040;2022-09-02T05:35:58;23.70;59.10
61398;DHT22;47267;48.130;-2.040;2022-09-02T05:38:24;23.70;59.20
61398;DHT22;47267;48.130;-2.040;2022-09-02T05:40:50;23.70;59.10
61398;DHT22;47267;48.130;-2.040;2022-09-02T05:43:16;23.70;59.20
61398;DHT22;47267;48.130;-2.040;2022-09-02T05:45:42;23.70;59.20
61398;DHT22;47267;48.130;-2.040;2022-09-02T05:48:07;23.70;59.20
61398;DHT22;47267;48.130;-2.040;2022-09-02T05:50:52;23.70;59.20
61398;DHT22;47267;48.130;-2.040;2022-09-02T05:53:18;23.70;59.20
61398;DHT22;47267;48.130;-2.040;2022-09-02T05:55:43;23.60;59.20
61398;DHT22;47267;48.130;-2.040;2022-09-02T05:58:09;23.60;59.20
61398;DHT22;47267;48.130;-2.040;2022-09-02T06:00:36;23.70;59.30
61398;DHT22;47267;48.130;-2.040;2022-09-02T06:03:03;23.70;59.30
61398;DHT22;47267;48.130;-2.040;2022-09-02T06:05:29;23.70;59.30
61398;DHT22;47267;48.130;-2.040;2022-09-02T06:07:55;23.60;59.30
61398;DHT22;47267;48.130;-2.040;2022-09-02T06:10:20;23.60;59.30
61398;DHT22;47267;48.130;-2.040;2022-09-02T06:12:46;23.60;59.30
61398;DHT22;47267;48.130;-2.040;2022-09-02T06:15:12;23.60;59.30
61398;DHT22;47267;48.130;-2.040;2022-09-02T06:17:39;23.60;59.30
61398;DHT22;47267;48.130;-2.040;2022-09-02T06:20:05;23.60;59.30
61398;DHT22;47267;48.130;-2.040;2022-09-02T06:22:31;23.60;59.30
61398;DHT22;47267;48.130;-2.040;2022-09-02T06:24:57;23.60;59.30
61398;DHT22;47267;48.130;-2.040;2022-09-02T06:27:22;23.60;59.30
61398;DHT22;47267;48.130;-2.040;2022-09-02T06:29:48;23.60;59.30
61398;DHT22;47267;48.130;-2.040;2022-09-02T06:32:14;23.60;59.30
61398;DHT22;47267;48.130;-2.040;2022-09-02T06:34:40;23.60;59.40
61398;DHT22;47267;48.130;-2.040;2022-09-02T06:37:05;23.60;59.40
61398;DHT22;47267;48.130;-2.040;2022-09-02T06:39:32;23.60;59.50
61398;DHT22;47267;48.130;-2.040;2022-09-02T06:41:57;23.60;59.50
61398;DHT22;47267;48.130;-2.040;2022-09-02T06:44:23;23.60;59.40
61398;DHT22;47267;48.130;-2.040;2022-09-02T06:46:55;23.60;59.40
61398;DHT22;47267;48.130;-2.040;2022-09-02T06:49:22;23.60;59.40
61398;DHT22;47267;48.130;-2.040;2022-09-02T06:51:50;23.60;59.50
61398;DHT22;47267;48.130;-2.040;2022-09-02T06:54:18;23.60;59.60
61398;DHT22;47267;48.130;-2.040;2022-09-02T06:56:45;23.60;59.70
61398;DHT22;47267;48.130;-2.040;2022-09-02T06:59:11;23.60;59.70
61398;DHT22;47267;48.130;-2.040;2022-09-02T07:01:36;23.60;59.80
61398;DHT22;47267;48.130;-2.040;2022-09-02T07:04:03;23.60;59.90
61398;DHT22;47267;48.130;-2.040;2022-09-02T07:06:50;23.60;60.10
61398;DHT22;47267;48.130;-2.040;2022-09-02T07:09:23;23.60;60.20
61398;DHT22;47267;48.130;-2.040;2022-09-02T07:11:49;23.60;60.20
61398;DHT22;47267;48.130;-2.040;2022-09-02T07:14:18;23.70;60.40
61398;DHT22;47267;48.130;-2.040;2022-09-02T07:16:51;23.70;60.40
61398;DHT22;47267;48.130;-2.040;2022-09-02T07:19:18;23.70;60.40
61398;DHT22;47267;48.130;-2.040;2022-09-02T07:21:44;23.60;60.60
61398;DHT22;47267;48.130;-2.040;2022-09-02T07:24:12;23.70;60.90
61398;DHT22;47267;48.130;-2.040;2022-09-02T07:26:39;23.70;61.30
61398;DHT22;47267;48.130;-2.040;2022-09-02T07:29:06;23.70;61.60
61398;DHT22;47267;48.130;-2.040;2022-09-02T07:31:35;23.70;61.60
61398;DHT22;47267;48.130;-2.040;2022-09-02T07:34:01;23.70;61.60
61398;DHT22;47267;48.130;-2.040;2022-09-02T07:36:27;23.70;62.00
61398;DHT22;47267;48.130;-2.040;2022-09-02T07:38:53;23.70;64.10
61398;DHT22;47267;48.130;-2.040;2022-09-02T07:41:20;23.70;63.10
61398;DHT22;47267;48.130;-2.040;2022-09-02T07:43:47;23.70;63.70
61398;DHT22;47267;48.130;-2.040;2022-09-02T07:46:13;23.70;63.50
61398;DHT22;47267;48.130;-2.040;2022-09-02T07:48:39;23.70;63.80
61398;DHT22;47267;48.130;-2.040;2022-09-02T07:51:06;23.70;64.30
61398;DHT22;47267;48.130;-2.040;2022-09-02T07:53:34;23.70;64.20
61398;DHT22;47267;48.130;-2.040;2022-09-02T07:56:00;23.70;64.60
61398;DHT22;47267;48.130;-2.040;2022-09-02T07:58:27;23.70;63.70
61398;DHT22;47267;48.130;-2.040;2022-09-02T08:00:56;23.70;63.50
61398;DHT22;47267;48.130;-2.040;2022-09-02T08:03:23;23.60;63.30
61398;DHT22;47267;48.130;-2.040;2022-09-02T08:05:49;23.60;63.10
61398;DHT22;47267;48.130;-2.040;2022-09-02T08:08:17;23.60;63.00
61398;DHT22;47267;48.130;-2.040;2022-09-02T08:10:50;23.60;62.90
61398;DHT22;47267;48.130;-2.040;2022-09-02T08:13:17;23.60;62.80
61398;DHT22;47267;48.130;-2.040;2022-09-02T08:15:43;23.60;62.70
61398;DHT22;47267;48.130;-2.040;2022-09-02T08:18:09;23.50;62.60
61398;DHT22;47267;48.130;-2.040;2022-09-02T08:20:35;23.50;62.60
61398;DHT22;47267;48.130;-2.040;2022-09-02T08:23:05;23.50;62.50
61398;DHT22;47267;48.130;-2.040;2022-09-02T08:25:32;23.50;62.50
61398;DHT22;47267;48.130;-2.040;2022-09-02T08:27:58;23.40;62.40
61398;DHT22;47267;48.130;-2.040;2022-09-02T08:30:24;23.40;62.40
61398;DHT22;47267;48.130;-2.040;2022-09-02T08:32:49;23.40;62.30
61398;DHT22;47267;48.130;-2.040;2022-09-02T08:35:15;23.40;62.30
61398;DHT22;47267;48.130;-2.040;2022-09-02T08:37:41;23.40;62.20
61398;DHT22;47267;48.130;-2.040;2022-09-02T08:40:13;23.40;62.20
61398;DHT22;47267;48.130;-2.040;2022-09-02T08:42:50;23.40;62.20
61398;DHT22;47267;48.130;-2.040;2022-09-02T08:50:30;23.40;62.20
61398;DHT22;47267;48.130;-2.040;2022-09-02T08:56:00;23.30;62.00
61398;DHT22;47267;48.130;-2.040;2022-09-02T08:58:42;23.30;62.10
61398;DHT22;47267;48.130;-2.040;2022-09-02T09:07:31;23.30;62.00
61398;DHT22;47267;48.130;-2.040;2022-09-02T09:15:50;23.30;62.00
61398;DHT22;47267;48.130;-2.040;2022-09-02T09:18:20;23.30;62.00
61398;DHT22;47267;48.130;-2.040;2022-09-02T09:20:50;23.30;62.00
61398;DHT22;47267;48.130;-2.040;2022-09-02T09:23:33;23.20;61.90
61398;DHT22;47267;48.130;-2.040;2022-09-02T09:26:09;23.30;61.90
61398;DHT22;47267;48.130;-2.040;2022-09-02T09:28:54;23.20;61.90
61398;DHT22;47267;48.130;-2.040;2022-09-02T09:31:27;23.30;61.90
61398;DHT22;47267;48.130;-2.040;2022-09-02T09:34:02;23.20;61.90
61398;DHT22;47267;48.130;-2.040;2022-09-02T09:39:24;23.30;61.90
61398;DHT22;47267;48.130;-2.040;2022-09-02T09:41:54;23.20;61.90
61398;DHT22;47267;48.130;-2.040;2022-09-02T09:47:16;23.20;61.90
61398;DHT22;47267;48.130;-2.040;2022-09-02T09:49:45;23.20;61.90
61398;DHT22;47267;48.130;-2.040;2022-09-02T09:52:21;23.20;61.90
61398;DHT22;47267;48.130;-2.040;2022-09-02T09:55:06;23.20;61.90
61398;DHT22;47267;48.130;-2.040;2022-09-02T09:57:32;23.20;61.90
61398;DHT22;47267;48.130;-2.040;2022-09-02T09:59:58;23.20;61.90
61398;DHT22;47267;48.130;-2.040;2022-09-02T10:02:27;23.20;61.90
61398;DHT22;47267;48.130;-2.040;2022-09-02T10:05:15;23.20;61.90
61398;DHT22;47267;48.130;-2.040;2022-09-02T10:07:42;23.20;61.90
61398;DHT22;47267;48.130;-2.040;2022-09-02T10:10:18;23.30;62.00
61398;DHT22;47267;48.130;-2.040;2022-09-02T10:12:46;23.20;61.90
61398;DHT22;47267;48.130;-2.040;2022-09-02T10:15:12;23.20;61.90
61398;DHT22;47267;48.130;-2.040;2022-09-02T10:17:46;23.20;61.90
61398;DHT22;47267;48.130;-2.040;2022-09-02T10:20:38;23.20;61.90
61398;DHT22;47267;48.130;-2.040;2022-09-02T10:23:36;23.20;61.90
61398;DHT22;47267;48.130;-2.040;2022-09-02T10:26:32;23.20;62.00
61398;DHT22;47267;48.130;-2.040;2022-09-02T10:29:20;23.20;62.00
61398;DHT22;47267;48.130;-2.040;2022-09-02T10:35:02;23.20;62.00
61398;DHT22;47267;48.130;-2.040;2022-09-02T10:40:42;23.20;62.10
61398;DHT22;47267;48.130;-2.040;2022-09-02T10:43:31;23.30;62.10
61398;DHT22;47267;48.130;-2.040;2022-09-02T10:45:59;23.30;62.10
61398;DHT22;47267;48.130;-2.040;2022-09-02T10:53:54;23.30;62.20
61398;DHT22;47267;48.130;-2.040;2022-09-02T10:59:32;23.30;62.20
61398;DHT22;47267;48.130;-2.040;2022-09-02T11:02:33;23.30;62.20
61398;DHT22;47267;48.130;-2.040;2022-09-02T11:05:11;23.30;62.20
61398;DHT22;47267;48.130;-2.040;2022-09-02T11:07:59;23.30;62.20
61398;DHT22;47267;48.130;-2.040;2022-09-02T11:10:37;23.30;62.20
61398;DHT22;47267;48.130;-2.040;2022-09-02T11:13:55;23.30;62.20
61398;DHT22;47267;48.130;-2.040;2022-09-02T11:16:00;23.30;62.20
61398;DHT22;47267;48.130;-2.040;2022-09-02T11:18:36;23.30;62.20
61398;DHT22;47267;48.130;-2.040;2022-09-02T11:21:46;23.30;62.20
61398;DHT22;47267;48.130;-2.040;2022-09-02T11:27:08;23.30;62.20
61398;DHT22;47267;48.130;-2.040;2022-09-02T11:29:56;23.30;62.20
61398;DHT22;47267;48.130;-2.040;2022-09-02T11:34:55;23.30;62.20
61398;DHT22;47267;48.130;-2.040;2022-09-02T11:37:46;23.40;62.20
61398;DHT22;47267;48.130;-2.040;2022-09-02T11:40:20;23.40;62.30
61398;DHT22;47267;48.130;-2.040;2022-09-02T11:43:06;23.40;62.30
61398;DHT22;47267;48.130;-2.040;2022-09-02T11:51:41;23.40;62.20
61398;DHT22;47267;48.130;-2.040;2022-09-02T11:54:14;23.40;62.20
61398;DHT22;47267;48.130;-2.040;2022-09-02T11:56:47;23.40;62.20
61398;DHT22;47267;48.130;-2.040;2022-09-02T11:59:23;23.40;62.20
61398;DHT22;47267;48.130;-2.040;2022-09-02T12:02:10;23.40;62.20
61398;DHT22;47267;48.130;-2.040;2022-09-02T12:04:36;23.40;62.20
61398;DHT22;47267;48.130;-2.040;2022-09-02T12:09:44;23.40;62.20
61398;DHT22;47267;48.130;-2.040;2022-09-02T12:15:13;23.40;62.20
61398;DHT22;47267;48.130;-2.040;2022-09-02T12:22:56;23.50;62.30
61398;DHT22;47267;48.130;-2.040;2022-09-02T12:36:07;23.50;62.20
61398;DHT22;47267;48.130;-2.040;2022-09-02T12:38:40;23.50;62.20
61398;DHT22;47267;48.130;-2.040;2022-09-02T12:41:21;23.60;62.20
61398;DHT22;47267;48.130;-2.040;2022-09-02T12:44:00;23.60;62.20
61398;DHT22;47267;48.130;-2.040;2022-09-02T12:49:32;23.60;62.20
61398;DHT22;47267;48.130;-2.040;2022-09-02T12:52:04;23.60;62.20
61398;DHT22;47267;48.130;-2.040;2022-09-02T12:54:40;23.60;62.20
61398;DHT22;47267;48.130;-2.040;2022-09-02T12:57:08;23.60;62.20
61398;DHT22;47267;48.130;-2.040;2022-09-02T12:59:38;23.60;62.20
61398;DHT22;47267;48.130;-2.040;2022-09-02T13:10:08;23.60;62.20
61398;DHT22;47267;48.130;-2.040;2022-09-02T13:15:40;23.60;62.10
61398;DHT22;47267;48.130;-2.040;2022-09-02T13:23:36;23.70;62.20
61398;DHT22;47267;48.130;-2.040;2022-09-02T13:31:26;23.70;62.20
61398;DHT22;47267;48.130;-2.040;2022-09-02T13:34:12;23.70;62.20
61398;DHT22;47267;48.130;-2.040;2022-09-02T13:36:45;23.70;62.20
61398;DHT22;47267;48.130;-2.040;2022-09-02T13:39:24;23.70;62.10
61398;DHT22;47267;48.130;-2.040;2022-09-02T13:41:51;23.70;62.20
61398;DHT22;47267;48.130;-2.040;2022-09-02T13:44:24;23.70;62.10
61398;DHT22;47267;48.130;-2.040;2022-09-02T13:47:14;23.70;62.10
61398;DHT22;47267;48.130;-2.040;2022-09-02T13:49:41;23.70;62.10
61398;DHT22;47267;48.130;-2.040;2022-09-02T13:52:27;23.70;62.10
61398;DHT22;47267;48.130;-2.040;2022-09-02T13:54:56;23.70;62.10
61398;DHT22;47267;48.130;-2.040;2022-09-02T13:57:27;23.80;62.20
61398;DHT22;47267;48.130;-2.040;2022-09-02T13:59:55;23.80;62.20
61398;DHT22;47267;48.130;-2.040;2022-09-02T14:02:33;23.80;62.20
61398;DHT22;47267;48.130;-2.040;2022-09-02T14:05:12;23.80;62.20
61398;DHT22;47267;48.130;-2.040;2022-09-02T14:07:49;23.70;62.10
61398;DHT22;47267;48.130;-2.040;2022-09-02T14:10:19;23.80;62.20
61398;DHT22;47267;48.130;-2.040;2022-09-02T14:12:46;23.80;62.20
61398;DHT22;47267;48.130;-2.040;2022-09-02T14:15:15;23.80;62.10
61398;DHT22;47267;48.130;-2.040;2022-09-02T14:17:41;23.80;62.10
61398;DHT22;47267;48.130;-2.040;2022-09-02T14:20:27;23.80;62.20
61398;DHT22;47267;48.130;-2.040;2022-09-02T14:22:55;23.80;62.20
61398;DHT22;47267;48.130;-2.040;2022-09-02T14:25:22;23.80;62.10
61398;DHT22;47267;48.130;-2.040;2022-09-02T14:27:53;23.80;62.10
61398;DHT22;47267;48.130;-2.040;2022-09-02T14:30:39;23.80;62.10
61398;DHT22;47267;48.130;-2.040;2022-09-02T14:36:02;23.80;62.10
61398;DHT22;47267;48.130;-2.040;2022-09-02T14:43:47;23.80;62.10
61398;DHT22;47267;48.130;-2.040;2022-09-02T14:46:46;23.80;62.10
61398;DHT22;47267;48.130;-2.040;2022-09-02T14:49:49;23.90;62.20
61398;DHT22;47267;48.130;-2.040;2022-09-02T14:54:45;23.90;62.20
61398;DHT22;47267;48.130;-2.040;2022-09-02T14:57:23;23.90;62.20
61398;DHT22;47267;48.130;-2.040;2022-09-02T14:59:50;23.90;62.20
61398;DHT22;47267;48.130;-2.040;2022-09-02T15:02:30;23.90;62.20
61398;DHT22;47267;48.130;-2.040;2022-09-02T15:04:59;23.90;62.20
61398;DHT22;47267;48.130;-2.040;2022-09-02T15:07:26;23.90;62.20
61398;DHT22;47267;48.130;-2.040;2022-09-02T15:09:55;23.90;62.20
61398;DHT22;47267;48.130;-2.040;2022-09-02T15:12:24;23.90;62.20
61398;DHT22;47267;48.130;-2.040;2022-09-02T15:14:54;24.00;62.20
61398;DHT22;47267;48.130;-2.040;2022-09-02T15:17:21;24.00;62.20
61398;DHT22;47267;48.130;-2.040;2022-09-02T15:19:49;24.00;62.20
61398;DHT22;47267;48.130;-2.040;2022-09-02T15:22:16;24.00;62.20
61398;DHT22;47267;48.130;-2.040;2022-09-02T15:24:42;24.00;62.70
61398;DHT22;47267;48.130;-2.040;2022-09-02T15:27:12;24.00;62.20
61398;DHT22;47267;48.130;-2.040;2022-09-02T15:29:38;24.00;62.20
61398;DHT22;47267;48.130;-2.040;2022-09-02T15:32:05;24.10;62.20
61398;DHT22;47267;48.130;-2.040;2022-09-02T15:34:31;24.10;62.20
61398;DHT22;47267;48.130;-2.040;2022-09-02T15:36:57;24.10;62.20
61398;DHT22;47267;48.130;-2.040;2022-09-02T15:39:26;24.10;62.20
61398;DHT22;47267;48.130;-2.040;2022-09-02T15:41:53;24.10;62.30
61398;DHT22;47267;48.130;-2.040;2022-09-02T15:44:22;24.10;62.30
61398;DHT22;47267;48.130;-2.040;2022-09-02T15:46:54;24.10;62.40
61398;DHT22;47267;48.130;-2.040;2022-09-02T15:49:21;24.10;62.70
61398;DHT22;47267;48.130;-2.040;2022-09-02T15:51:48;24.20;63.00
61398;DHT22;47267;48.130;-2.040;2022-09-02T15:54:16;24.20;63.00
61398;DHT22;47267;48.130;-2.040;2022-09-02T15:56:44;24.20;62.50
61398;DHT22;47267;48.130;-2.040;2022-09-02T15:59:11;24.20;62.30
61398;DHT22;47267;48.130;-2.040;2022-09-02T16:01:40;24.30;62.40
61398;DHT22;47267;48.130;-2.040;2022-09-02T16:04:08;24.30;62.40
61398;DHT22;47267;48.130;-2.040;2022-09-02T16:06:37;24.30;62.40
61398;DHT22;47267;48.130;-2.040;2022-09-02T16:09:09;24.30;62.30
61398;DHT22;47267;48.130;-2.040;2022-09-02T16:11:40;24.40;62.40
61398;DHT22;47267;48.130;-2.040;2022-09-02T16:14:07;24.30;62.30
61398;DHT22;47267;48.130;-2.040;2022-09-02T16:16:33;24.40;62.30
61398;DHT22;47267;48.130;-2.040;2022-09-02T16:19:00;24.40;62.30
61398;DHT22;47267;48.130;-2.040;2022-09-02T16:21:27;24.40;62.30
61398;DHT22;47267;48.130;-2.040;2022-09-02T16:23:53;24.40;62.30
61398;DHT22;47267;48.130;-2.040;2022-09-02T16:26:29;24.40;62.30
61398;DHT22;47267;48.130;-2.040;2022-09-02T16:29:01;24.40;62.20
61398;DHT22;47267;48.130;-2.040;2022-09-02T16:31:29;24.40;62.20
61398;DHT22;47267;48.130;-2.040;2022-09-02T16:34:04;24.40;62.20
61398;DHT22;47267;48.130;-2.040;2022-09-02T16:36:32;24.40;62.20
61398;DHT22;47267;48.130;-2.040;2022-09-02T16:38:58;24.40;62.40
61398;DHT22;47267;48.130;-2.040;2022-09-02T16:41:30;24.50;62.20
61398;DHT22;47267;48.130;-2.040;2022-09-02T16:44:00;24.50;62.30
61398;DHT22;47267;48.130;-2.040;2022-09-02T16:46:27;24.50;62.20
61398;DHT22;47267;48.130;-2.040;2022-09-02T16:48:53;24.50;62.20
61398;DHT22;47267;48.130;-2.040;2022-09-02T16:51:23;24.50;62.20
61398;DHT22;47267;48.130;-2.040;2022-09-02T16:53:58;24.50;62.20
61398;DHT22;47267;48.130;-2.040;2022-09-02T16:56:24;24.50;62.20
61398;DHT22;47267;48.130;-2.040;2022-09-02T16:58:51;24.50;62.10
61398;DHT22;47267;48.130;-2.040;2022-09-02T17:01:18;24.60;62.20
61398;DHT22;47267;48.130;-2.040;2022-09-02T17:03:45;24.60;62.20
61398;DHT22;47267;48.130;-2.040;2022-09-02T17:06:11;24.60;62.20
61398;DHT22;47267;48.130;-2.040;2022-09-02T17:08:37;24.60;62.20
61398;DHT22;47267;48.130;-2.040;2022-09-02T17:11:16;24.60;62.10
61398;DHT22;47267;48.130;-2.040;2022-09-02T17:13:50;24.60;62.70
61398;DHT22;47267;48.130;-2.040;2022-09-02T17:16:17;24.60;62.10
61398;DHT22;47267;48.130;-2.040;2022-09-02T17:18:43;24.60;62.10